sensor_id;sensor_type;location;lat;lon;timestamp;temperature;humidity
490;DHT22;231;48.120;11.576;2022-12-15T00:00:23;2.30;51.90
490;DHT22;231;48.120;11.576;2022-12-15T00:03:08;2.20;51.40
490;DHT22;231;48.120;11.576;2022-12-15T00:05:52;2.20;51.30
490;DHT22;231;48.120;11.576;2022-12-15T00:08:37;2.10;51.30
490;DHT22;231;48.120;11.576;2022-12-15T00:11:21;2.10;51.50
490;DHT22;231;48.120;11.576;2022-12-15T00:14:07;2.10;51.70
490;DHT22;231;48.120;11.576;2022-12-15T00:16:51;1.70;51.60
490;DHT22;231;48.120;11.576;2022-12-15T00:19:37;2.00;52.50
490;DHT22;231;48.120;11.576;2022-12-15T00:22:21;2.00;52.40
490;DHT22;231;48.120;11.576;2022-12-15T00:25:05;1.70;51.50
490;DHT22;231;48.120;11.576;2022-12-15T00:27:50;1.70;51.60
490;DHT22;231;48.120;11.576;2022-12-15T00:30:34;2.10;52.90
490;DHT22;231;48.120;11.576;2022-12-15T00:33:19;1.60;52.60
490;DHT22;231;48.120;11.576;2022-12-15T00:36:05;2.00;52.70
490;DHT22;231;48.120;11.576;2022-12-15T00:38:50;2.00;52.30
490;DHT22;231;48.120;11.576;2022-12-15T00:41:17;1.50;51.50
490;DHT22;231;48.120;11.576;2022-12-15T00:43:44;1.60;51.30
490;DHT22;231;48.120;11.576;2022-12-15T00:46:12;1.60;51.10
490;DHT22;231;48.120;11.576;2022-12-15T00:48:57;1.70;50.80
490;DHT22;231;48.120;11.576;2022-12-15T00:51:26;2.00;50.90
490;DHT22;231;48.120;11.576;2022-12-15T00:54:11;1.40;50.10
490;DHT22;231;48.120;11.576;2022-12-15T00:56:55;1.90;49.90
490;DHT22;231;48.120;11.576;2022-12-15T00:59:40;1.40;49.80
490;DHT22;231;48.120;11.576;2022-12-15T01:02:24;1.70;50.50
490;DHT22;231;48.120;11.576;2022-12-15T01:05:08;1.40;50.90
490;DHT22;231;48.120;11.576;2022-12-15T01:07:54;1.50;51.40
490;DHT22;231;48.120;11.576;2022-12-15T01:10:38;1.10;51.20
490;DHT22;231;48.120;11.576;2022-12-15T01:13:23;1.70;51.80
490;DHT22;231;48.120;11.576;2022-12-15T01:16:09;1.30;51.20
490;DHT22;231;48.120;11.576;2022-12-15T01:18:54;1.90;51.80
490;DHT22;231;48.120;11.576;2022-12-15T01:21:38;1.80;51.60
490;DHT22;231;48.120;11.576;2022-12-15T01:24:06;1.80;51.20
490;DHT22;231;48.120;11.576;2022-12-15T01:26:33;1.80;51.30
490;DHT22;231;48.120;11.576;2022-12-15T01:29:00;1.40;51.30
490;DHT22;231;48.120;11.576;2022-12-15T01:31:27;2.00;51.10
490;DHT22;231;48.120;11.576;2022-12-15T01:33:54;1.60;50.40
490;DHT22;231;48.120;11.576;2022-12-15T01:36:21;1.50;50.40
490;DHT22;231;48.120;11.576;2022-12-15T01:38:48;1.90;50.30
490;DHT22;231;48.120;11.576;2022-12-15T01:41:17;1.40;49.50
490;DHT22;231;48.120;11.576;2022-12-15T01:43:43;1.90;50.00
490;DHT22;231;48.120;11.576;2022-12-15T01:46:11;1.50;49.60
490;DHT22;231;48.120;11.576;2022-12-15T01:48:41;1.60;49.70
490;DHT22;231;48.120;11.576;2022-12-15T01:51:14;1.80;49.80
490;DHT22;231;48.120;11.576;2022-12-15T01:53:54;1.80;49.10
490;DHT22;231;48.120;11.576;2022-12-15T01:56:26;1.30;48.60
490;DHT22;231;48.120;11.576;2022-12-15T01:59:02;1.60;49.10
490;DHT22;231;48.120;11.576;2022-12-15T02:01:30;1.60;49.20
490;DHT22;231;48.120;11.576;2022-12-15T02:03:57;1.80;49.60
490;DHT22;231;48.120;11.576;2022-12-15T02:06:25;1.30;48.90
490;DHT22;231;48.120;11.576;2022-12-15T02:08:55;1.70;49.10
490;DHT22;231;48.120;11.576;2022-12-15T02:11:42;1.30;49.00
490;DHT22;231;48.120;11.576;2022-12-15T02:14:11;1.80;49.60
490;DHT22;231;48.120;11.576;2022-12-15T02:17:05;1.60;48.80
490;DHT22;231;48.120;11.576;2022-12-15T02:22:49;1.70;49.30
490;DHT22;231;48.120;11.576;2022-12-15T02:25:27;1.70;49.10
490;DHT22;231;48.120;11.576;2022-12-15T02:28:03;1.40;49.10
490;DHT22;231;48.120;11.576;2022-12-15T02:30:43;1.60;49.10
490;DHT22;231;48.120;11.576;2022-12-15T02:33:35;1.60;48.90
490;DHT22;231;48.120;11.576;2022-12-15T02:36:11;1.80;49.50
490;DHT22;231;48.120;11.576;2022-12-15T02:38:48;1.60;49.00
490;DHT22;231;48.120;11.576;2022-12-15T02:41:33;1.70;49.50
490;DHT22;231;48.120;11.576;2022-12-15T02:44:11;1.70;49.10
490;DHT22;231;48.120;11.576;2022-12-15T02:49:45;1.30;48.20
490;DHT22;231;48.120;11.576;2022-12-15T02:52:25;1.00;48.20
490;DHT22;231;48.120;11.576;2022-12-15T02:55:05;1.40;48.90
490;DHT22;231;48.120;11.576;2022-12-15T02:57:42;1.10;49.50
490;DHT22;231;48.120;11.576;2022-12-15T03:00:14;1.00;49.20
490;DHT22;231;48.120;11.576;2022-12-15T03:02:45;1.40;48.40
490;DHT22;231;48.120;11.576;2022-12-15T03:05:13;1.10;49.10
490;DHT22;231;48.120;11.576;2022-12-15T03:07:40;1.10;49.30
490;DHT22;231;48.120;11.576;2022-12-15T03:10:11;0.90;48.60
490;DHT22;231;48.120;11.576;2022-12-15T03:12:45;1.30;49.20
490;DHT22;231;48.120;11.576;2022-12-15T03:15:12;1.30;49.80
490;DHT22;231;48.120;11.576;2022-12-15T03:17:40;1.00;48.70
490;DHT22;231;48.120;11.576;2022-12-15T03:20:09;1.00;49.20
490;DHT22;231;48.120;11.576;2022-12-15T03:22:36;1.30;49.00
490;DHT22;231;48.120;11.576;2022-12-15T03:25:04;1.20;49.10
490;DHT22;231;48.120;11.576;2022-12-15T03:27:32;1.30;49.40
490;DHT22;231;48.120;11.576;2022-12-15T03:29:59;0.80;48.80
490;DHT22;231;48.120;11.576;2022-12-15T03:32:25;0.90;49.10
490;DHT22;231;48.120;11.576;2022-12-15T03:34:53;1.00;49.20
490;DHT22;231;48.120;11.576;2022-12-15T03:37:21;0.60;49.20
490;DHT22;231;48.120;11.576;2022-12-15T03:39:48;0.70;49.60
490;DHT22;231;48.120;11.576;2022-12-15T03:42:15;1.00;50.10
490;DHT22;231;48.120;11.576;2022-12-15T03:45:03;0.90;49.50
490;DHT22;231;48.120;11.576;2022-12-15T03:47:30;1.00;49.70
490;DHT22;231;48.120;11.576;2022-12-15T03:49:57;1.00;49.20
490;DHT22;231;48.120;11.576;2022-12-15T03:52:26;1.00;49.30
490;DHT22;231;48.120;11.576;2022-12-15T03:54:53;1.00;48.80
490;DHT22;231;48.120;11.576;2022-12-15T03:57:20;0.90;48.50
490;DHT22;231;48.120;11.576;2022-12-15T03:59:47;0.70;48.30
490;DHT22;231;48.120;11.576;2022-12-15T04:02:15;0.50;48.20
490;DHT22;231;48.120;11.576;2022-12-15T04:04:42;1.00;49.20
490;DHT22;231;48.120;11.576;2022-12-15T04:07:09;0.90;48.60
490;DHT22;231;48.120;11.576;2022-12-15T04:09:37;0.70;48.70
490;DHT22;231;48.120;11.576;2022-12-15T04:12:04;0.30;47.50
490;DHT22;231;48.120;11.576;2022-12-15T04:14:31;0.70;48.30
490;DHT22;231;48.120;11.576;2022-12-15T04:16:58;0.50;48.40
490;DHT22;231;48.120;11.576;2022-12-15T04:19:25;0.60;48.20
490;DHT22;231;48.120;11.576;2022-12-15T04:22:09;0.90;48.90
490;DHT22;231;48.120;11.576;2022-12-15T04:24:38;0.90;49.70
490;DHT22;231;48.120;11.576;2022-12-15T04:27:22;1.00;49.00
490;DHT22;231;48.120;11.576;2022-12-15T04:30:07;1.00;48.10
490;DHT22;231;48.120;11.576;2022-12-15T04:32:51;0.90;46.80
490;DHT22;231;48.120;11.576;2022-12-15T04:35:37;0.80;46.70
490;DHT22;231;48.120;11.576;2022-12-15T04:38:21;0.60;47.40
490;DHT22;231;48.120;11.576;2022-12-15T04:41:07;0.80;47.50
490;DHT22;231;48.120;11.576;2022-12-15T04:43:51;0.40;47.40
490;DHT22;231;48.120;11.576;2022-12-15T04:46:36;0.90;47.50
490;DHT22;231;48.120;11.576;2022-12-15T04:49:20;0.50;46.90
490;DHT22;231;48.120;11.576;2022-12-15T04:52:04;0.30;45.70
490;DHT22;231;48.120;11.576;2022-12-15T04:54:48;0.30;45.80
490;DHT22;231;48.120;11.576;2022-12-15T04:57:34;0.80;46.80
490;DHT22;231;48.120;11.576;2022-12-15T05:00:19;1.00;46.90
490;DHT22;231;48.120;11.576;2022-12-15T05:03:04;0.60;46.80
490;DHT22;231;48.120;11.576;2022-12-15T05:05:49;0.60;46.20
490;DHT22;231;48.120;11.576;2022-12-15T05:08:33;0.90;47.10
490;DHT22;231;48.120;11.576;2022-12-15T05:11:18;0.90;47.60
490;DHT22;231;48.120;11.576;2022-12-15T05:14:04;1.00;47.70
490;DHT22;231;48.120;11.576;2022-12-15T05:16:48;1.00;47.80
490;DHT22;231;48.120;11.576;2022-12-15T05:19:32;1.10;47.50
490;DHT22;231;48.120;11.576;2022-12-15T05:22:17;0.80;46.10
490;DHT22;231;48.120;11.576;2022-12-15T05:25:04;0.30;46.10
490;DHT22;231;48.120;11.576;2022-12-15T05:27:49;0.20;46.30
490;DHT22;231;48.120;11.576;2022-12-15T05:30:34;0.60;47.30
490;DHT22;231;48.120;11.576;2022-12-15T05:33:19;0.20;47.20
490;DHT22;231;48.120;11.576;2022-12-15T05:35:46;0.20;46.70
490;DHT22;231;48.120;11.576;2022-12-15T05:38:14;0.70;47.60
490;DHT22;231;48.120;11.576;2022-12-15T05:40:41;0.50;47.30
490;DHT22;231;48.120;11.576;2022-12-15T05:43:08;0.80;47.40
490;DHT22;231;48.120;11.576;2022-12-15T05:45:36;1.00;47.20
490;DHT22;231;48.120;11.576;2022-12-15T05:48:12;0.30;46.70
490;DHT22;231;48.120;11.576;2022-12-15T05:50:39;0.50;46.80
490;DHT22;231;48.120;11.576;2022-12-15T05:53:06;0.40;46.90
490;DHT22;231;48.120;11.576;2022-12-15T05:55:33;0.50;46.20
490;DHT22;231;48.120;11.576;2022-12-15T05:58:00;0.40;44.20
490;DHT22;231;48.120;11.576;2022-12-15T06:00:27;0.80;46.00
490;DHT22;231;48.120;11.576;2022-12-15T06:02:57;0.30;45.90
490;DHT22;231;48.120;11.576;2022-12-15T06:05:24;0.80;45.90
490;DHT22;231;48.120;11.576;2022-12-15T06:07:51;0.30;45.10
490;DHT22;231;48.120;11.576;2022-12-15T06:10:17;0.80;45.30
490;DHT22;231;48.120;11.576;2022-12-15T06:12:45;0.70;44.80
490;DHT22;231;48.120;11.576;2022-12-15T06:15:12;0.80;45.50
490;DHT22;231;48.120;11.576;2022-12-15T06:17:39;0.90;45.10
490;DHT22;231;48.120;11.576;2022-12-15T06:20:08;0.90;45.30
490;DHT22;231;48.120;11.576;2022-12-15T06:22:35;1.00;45.60
490;DHT22;231;48.120;11.576;2022-12-15T06:25:03;0.90;45.50
490;DHT22;231;48.120;11.576;2022-12-15T06:27:33;1.10;45.60
490;DHT22;231;48.120;11.576;2022-12-15T06:30:00;0.80;44.30
490;DHT22;231;48.120;11.576;2022-12-15T06:32:28;0.40;44.80
490;DHT22;231;48.120;11.576;2022-12-15T06:34:55;0.80;45.70
490;DHT22;231;48.120;11.576;2022-12-15T06:37:23;0.90;45.90
490;DHT22;231;48.120;11.576;2022-12-15T06:39:58;0.90;45.90
490;DHT22;231;48.120;11.576;2022-12-15T06:42:25;0.90;45.80
490;DHT22;231;48.120;11.576;2022-12-15T06:44:52;0.90;45.70
490;DHT22;231;48.120;11.576;2022-12-15T06:47:19;0.90;45.10
490;DHT22;231;48.120;11.576;2022-12-15T06:49:46;0.50;44.70
490;DHT22;231;48.120;11.576;2022-12-15T06:52:14;0.90;45.40
490;DHT22;231;48.120;11.576;2022-12-15T06:54:42;0.90;44.90
490;DHT22;231;48.120;11.576;2022-12-15T06:57:09;0.90;44.40
490;DHT22;231;48.120;11.576;2022-12-15T06:59:36;0.90;43.90
490;DHT22;231;48.120;11.576;2022-12-15T07:02:04;0.90;44.20
490;DHT22;231;48.120;11.576;2022-12-15T07:04:31;0.70;44.50
490;DHT22;231;48.120;11.576;2022-12-15T07:06:58;0.40;44.70
490;DHT22;231;48.120;11.576;2022-12-15T07:09:25;0.80;44.50
490;DHT22;231;48.120;11.576;2022-12-15T07:11:54;0.40;44.80
490;DHT22;231;48.120;11.576;2022-12-15T07:14:21;0.80;44.80
490;DHT22;231;48.120;11.576;2022-12-15T07:16:49;0.60;43.60
490;DHT22;231;48.120;11.576;2022-12-15T07:19:16;0.20;43.30
490;DHT22;231;48.120;11.576;2022-12-15T07:21:43;0.70;44.00
490;DHT22;231;48.120;11.576;2022-12-15T07:24:10;0.80;44.60
490;DHT22;231;48.120;11.576;2022-12-15T07:26:38;0.90;43.90
490;DHT22;231;48.120;11.576;2022-12-15T07:29:08;0.80;43.80
490;DHT22;231;48.120;11.576;2022-12-15T07:31:36;0.90;43.90
490;DHT22;231;48.120;11.576;2022-12-15T07:34:03;0.90;43.90
490;DHT22;231;48.120;11.576;2022-12-15T07:36:30;0.50;42.80
490;DHT22;231;48.120;11.576;2022-12-15T07:38:58;0.60;43.30
490;DHT22;231;48.120;11.576;2022-12-15T07:41:27;0.90;42.60
490;DHT22;231;48.120;11.576;2022-12-15T07:43:55;1.00;42.30
490;DHT22;231;48.120;11.576;2022-12-15T07:46:24;0.90;41.90
490;DHT22;231;48.120;11.576;2022-12-15T07:48:51;0.90;42.10
490;DHT22;231;48.120;11.576;2022-12-15T07:51:19;0.50;42.20
490;DHT22;231;48.120;11.576;2022-12-15T07:53:46;1.10;43.20
490;DHT22;231;48.120;11.576;2022-12-15T07:56:14;0.70;43.10
490;DHT22;231;48.120;11.576;2022-12-15T07:58:41;1.20;43.20
490;DHT22;231;48.120;11.576;2022-12-15T08:01:10;1.10;41.90
490;DHT22;231;48.120;11.576;2022-12-15T08:03:40;0.70;41.10
490;DHT22;231;48.120;11.576;2022-12-15T08:06:08;0.80;41.80
490;DHT22;231;48.120;11.576;2022-12-15T08:08:36;1.20;42.20
490;DHT22;231;48.120;11.576;2022-12-15T08:11:10;1.20;42.20
490;DHT22;231;48.120;11.576;2022-12-15T08:13:38;1.30;41.60
490;DHT22;231;48.120;11.576;2022-12-15T08:20:08;1.40;41.00
490;DHT22;231;48.120;11.576;2022-12-15T08:22:51;1.20;39.60
490;DHT22;231;48.120;11.576;2022-12-15T08:25:18;1.10;40.20
490;DHT22;231;48.120;11.576;2022-12-15T08:27:45;1.10;40.50
490;DHT22;231;48.120;11.576;2022-12-15T08:30:12;1.10;41.40
490;DHT22;231;48.120;11.576;2022-12-15T08:32:40;1.20;41.20
490;DHT22;231;48.120;11.576;2022-12-15T08:35:09;0.80;40.50
490;DHT22;231;48.120;11.576;2022-12-15T08:37:36;1.00;41.90
490;DHT22;231;48.120;11.576;2022-12-15T08:40:18;1.10;41.20
490;DHT22;231;48.120;11.576;2022-12-15T08:42:45;1.20;41.30
490;DHT22;231;48.120;11.576;2022-12-15T08:45:12;1.20;40.40
490;DHT22;231;48.120;11.576;2022-12-15T08:47:40;1.40;40.70
490;DHT22;231;48.120;11.576;2022-12-15T08:50:12;0.70;38.70
490;DHT22;231;48.120;11.576;2022-12-15T08:52:53;1.10;40.60
490;DHT22;231;48.120;11.576;2022-12-15T08:55:49;1.30;39.90
490;DHT22;231;48.120;11.576;2022-12-15T08:58:17;1.20;39.50
490;DHT22;231;48.120;11.576;2022-12-15T09:01:01;1.40;40.40
490;DHT22;231;48.120;11.576;2022-12-15T09:03:28;1.40;39.00
490;DHT22;231;48.120;11.576;2022-12-15T09:06:00;0.90;38.60
490;DHT22;231;48.120;11.576;2022-12-15T09:08:35;1.40;39.50
490;DHT22;231;48.120;11.576;2022-12-15T09:11:49;1.20;38.90
490;DHT22;231;48.120;11.576;2022-12-15T09:14:22;1.50;38.90
490;DHT22;231;48.120;11.576;2022-12-15T09:16:50;1.70;38.70
490;DHT22;231;48.120;11.576;2022-12-15T09:19:19;1.60;38.70
490;DHT22;231;48.120;11.576;2022-12-15T09:21:48;1.80;39.00
490;DHT22;231;48.120;11.576;2022-12-15T09:30:34;1.80;36.60
490;DHT22;231;48.120;11.576;2022-12-15T09:33:03;1.70;37.70
490;DHT22;231;48.120;11.576;2022-12-15T09:39:36;1.70;38.10
490;DHT22;231;48.120;11.576;2022-12-15T09:42:23;1.70;38.40
490;DHT22;231;48.120;11.576;2022-12-15T09:44:58;1.60;38.60
490;DHT22;231;48.120;11.576;2022-12-15T09:47:32;1.70;38.30
490;DHT22;231;48.120;11.576;2022-12-15T09:50:03;1.70;38.80
490;DHT22;231;48.120;11.576;2022-12-15T09:52:42;1.50;38.30
490;DHT22;231;48.120;11.576;2022-12-15T09:55:18;1.50;37.70
490;DHT22;231;48.120;11.576;2022-12-15T09:57:57;1.40;38.50
490;DHT22;231;48.120;11.576;2022-12-15T10:00:46;1.30;39.30
490;DHT22;231;48.120;11.576;2022-12-15T10:03:45;1.30;40.30
490;DHT22;231;48.120;11.576;2022-12-15T10:06:19;1.40;41.70
490;DHT22;231;48.120;11.576;2022-12-15T10:08:49;1.40;41.40
490;DHT22;231;48.120;11.576;2022-12-15T10:11:27;1.70;41.00
490;DHT22;231;48.120;11.576;2022-12-15T10:14:05;1.30;39.60
490;DHT22;231;48.120;11.576;2022-12-15T10:16:51;1.80;38.30
490;DHT22;231;48.120;11.576;2022-12-15T10:19:32;1.60;38.40
490;DHT22;231;48.120;11.576;2022-12-15T10:22:07;1.40;39.40
490;DHT22;231;48.120;11.576;2022-12-15T10:24:36;1.10;40.90
490;DHT22;231;48.120;11.576;2022-12-15T10:27:16;1.50;40.40
490;DHT22;231;48.120;11.576;2022-12-15T10:29:50;0.90;40.30
490;DHT22;231;48.120;11.576;2022-12-15T10:32:28;1.40;41.40
490;DHT22;231;48.120;11.576;2022-12-15T10:34:59;0.80;41.20
490;DHT22;231;48.120;11.576;2022-12-15T10:37:26;1.30;42.40
490;DHT22;231;48.120;11.576;2022-12-15T10:39:53;1.00;42.50
490;DHT22;231;48.120;11.576;2022-12-15T10:42:23;1.40;43.70
490;DHT22;231;48.120;11.576;2022-12-15T10:44:52;1.60;42.40
490;DHT22;231;48.120;11.576;2022-12-15T10:47:22;1.00;42.30
490;DHT22;231;48.120;11.576;2022-12-15T10:49:50;1.30;43.00
490;DHT22;231;48.120;11.576;2022-12-15T10:52:24;1.40;43.90
490;DHT22;231;48.120;11.576;2022-12-15T10:54:54;1.10;44.50
490;DHT22;231;48.120;11.576;2022-12-15T10:57:26;1.20;43.00
490;DHT22;231;48.120;11.576;2022-12-15T10:59:54;1.60;41.70
490;DHT22;231;48.120;11.576;2022-12-15T11:02:32;1.50;42.10
490;DHT22;231;48.120;11.576;2022-12-15T11:05:02;1.90;42.70
490;DHT22;231;48.120;11.576;2022-12-15T11:07:34;1.90;42.30
490;DHT22;231;48.120;11.576;2022-12-15T11:10:13;2.10;42.20
490;DHT22;231;48.120;11.576;2022-12-15T11:12:42;1.60;39.90
490;DHT22;231;48.120;11.576;2022-12-15T11:15:37;1.90;39.90
490;DHT22;231;48.120;11.576;2022-12-15T11:18:10;1.80;39.20
490;DHT22;231;48.120;11.576;2022-12-15T11:20:45;2.00;41.00
490;DHT22;231;48.120;11.576;2022-12-15T11:23:19;2.00;40.60
490;DHT22;231;48.120;11.576;2022-12-15T11:25:50;2.10;39.60
490;DHT22;231;48.120;11.576;2022-12-15T11:28:23;1.90;39.40
490;DHT22;231;48.120;11.576;2022-12-15T11:30:56;1.90;40.10
490;DHT22;231;48.120;11.576;2022-12-15T11:33:25;1.90;41.10
490;DHT22;231;48.120;11.576;2022-12-15T11:36:01;2.00;41.40
490;DHT22;231;48.120;11.576;2022-12-15T11:38:39;2.20;41.20
490;DHT22;231;48.120;11.576;2022-12-15T11:41:16;2.10;40.60
490;DHT22;231;48.120;11.576;2022-12-15T11:44:19;2.30;40.70
490;DHT22;231;48.120;11.576;2022-12-15T11:46:54;2.40;40.20
490;DHT22;231;48.120;11.576;2022-12-15T11:49:50;2.40;38.90
490;DHT22;231;48.120;11.576;2022-12-15T11:52:40;2.40;37.00
490;DHT22;231;48.120;11.576;2022-12-15T11:55:15;2.10;36.90
490;DHT22;231;48.120;11.576;2022-12-15T11:57:56;2.10;37.90
490;DHT22;231;48.120;11.576;2022-12-15T12:00:33;2.10;38.40
490;DHT22;231;48.120;11.576;2022-12-15T12:03:12;1.90;38.10
490;DHT22;231;48.120;11.576;2022-12-15T12:06:01;1.80;39.30
490;DHT22;231;48.120;11.576;2022-12-15T12:08:44;1.90;40.10
490;DHT22;231;48.120;11.576;2022-12-15T12:11:14;1.90;39.80
490;DHT22;231;48.120;11.576;2022-12-15T12:14:03;1.90;39.70
490;DHT22;231;48.120;11.576;2022-12-15T12:16:40;1.70;40.60
490;DHT22;231;48.120;11.576;2022-12-15T12:19:12;1.80;42.00
490;DHT22;231;48.120;11.576;2022-12-15T12:21:44;1.90;42.80
490;DHT22;231;48.120;11.576;2022-12-15T12:24:17;1.90;42.10
490;DHT22;231;48.120;11.576;2022-12-15T12:26:46;2.00;41.70
490;DHT22;231;48.120;11.576;2022-12-15T12:29:20;2.20;41.30
490;DHT22;231;48.120;11.576;2022-12-15T12:31:58;2.00;40.40
490;DHT22;231;48.120;11.576;2022-12-15T12:34:32;2.00;40.50
490;DHT22;231;48.120;11.576;2022-12-15T12:37:11;1.90;39.90
490;DHT22;231;48.120;11.576;2022-12-15T12:39:39;2.00;40.40
490;DHT22;231;48.120;11.576;2022-12-15T12:42:13;1.60;40.20
490;DHT22;231;48.120;11.576;2022-12-15T12:44:42;2.00;40.30
490;DHT22;231;48.120;11.576;2022-12-15T12:47:14;2.10;39.90
490;DHT22;231;48.120;11.576;2022-12-15T12:49:44;2.00;39.00
490;DHT22;231;48.120;11.576;2022-12-15T12:52:19;2.00;39.30
490;DHT22;231;48.120;11.576;2022-12-15T12:54:54;2.00;39.50
490;DHT22;231;48.120;11.576;2022-12-15T12:57:32;2.00;39.70
490;DHT22;231;48.120;11.576;2022-12-15T13:00:03;2.00;39.50
490;DHT22;231;48.120;11.576;2022-12-15T13:05:38;2.00;39.60
490;DHT22;231;48.120;11.576;2022-12-15T13:17:16;1.80;39.90
490;DHT22;231;48.120;11.576;2022-12-15T13:20:05;1.80;39.60
490;DHT22;231;48.120;11.576;2022-12-15T13:22:36;1.70;40.20
490;DHT22;231;48.120;11.576;2022-12-15T13:28:25;1.80;40.70
490;DHT22;231;48.120;11.576;2022-12-15T13:31:25;1.80;40.50
490;DHT22;231;48.120;11.576;2022-12-15T13:37:04;1.10;39.30
490;DHT22;231;48.120;11.576;2022-12-15T13:39:54;1.30;40.00
490;DHT22;231;48.120;11.576;2022-12-15T13:42:31;1.60;41.50
490;DHT22;231;48.120;11.576;2022-12-15T13:48:24;1.60;41.20
490;DHT22;231;48.120;11.576;2022-12-15T13:53:42;1.40;39.80
490;DHT22;231;48.120;11.576;2022-12-15T13:56:38;1.50;39.20
490;DHT22;231;48.120;11.576;2022-12-15T13:59:13;1.50;39.70
490;DHT22;231;48.120;11.576;2022-12-15T14:01:48;1.00;39.30
490;DHT22;231;48.120;11.576;2022-12-15T14:04:19;1.50;39.60
490;DHT22;231;48.120;11.576;2022-12-15T14:06:47;1.50;39.40
490;DHT22;231;48.120;11.576;2022-12-15T14:09:20;1.30;39.10
490;DHT22;231;48.120;11.576;2022-12-15T14:11:49;1.40;39.00
490;DHT22;231;48.120;11.576;2022-12-15T14:14:19;1.70;40.00
490;DHT22;231;48.120;11.576;2022-12-15T14:16:51;1.40;39.20
490;DHT22;231;48.120;11.576;2022-12-15T14:19:20;1.40;39.40
490;DHT22;231;48.120;11.576;2022-12-15T14:21:48;1.50;39.60
490;DHT22;231;48.120;11.576;2022-12-15T14:24:28;1.40;39.20
490;DHT22;231;48.120;11.576;2022-12-15T14:26:56;1.00;38.30
490;DHT22;231;48.120;11.576;2022-12-15T14:29:23;0.90;38.80
490;DHT22;231;48.120;11.576;2022-12-15T14:31:53;1.60;40.00
490;DHT22;231;48.120;11.576;2022-12-15T14:34:30;1.60;39.20
490;DHT22;231;48.120;11.576;2022-12-15T14:37:00;1.50;39.10
490;DHT22;231;48.120;11.576;2022-12-15T14:39:34;1.00;38.50
490;DHT22;231;48.120;11.576;2022-12-15T14:42:02;1.50;39.40
490;DHT22;231;48.120;11.576;2022-12-15T14:44:34;1.00;38.90
490;DHT22;231;48.120;11.576;2022-12-15T14:47:04;1.20;39.20
490;DHT22;231;48.120;11.576;2022-12-15T14:49:37;1.10;38.70
490;DHT22;231;48.120;11.576;2022-12-15T14:52:06;1.10;38.80
490;DHT22;231;48.120;11.576;2022-12-15T14:54:52;1.40;38.60
490;DHT22;231;48.120;11.576;2022-12-15T14:57:23;1.20;37.90
490;DHT22;231;48.120;11.576;2022-12-15T14:59:50;1.20;39.60
490;DHT22;231;48.120;11.576;2022-12-15T15:02:20;0.80;39.80
490;DHT22;231;48.120;11.576;2022-12-15T15:04:57;1.40;40.40
490;DHT22;231;48.120;11.576;2022-12-15T15:07:28;1.40;40.70
490;DHT22;231;48.120;11.576;2022-12-15T15:10:00;1.40;41.00
490;DHT22;231;48.120;11.576;2022-12-15T15:12:40;1.40;40.90
490;DHT22;231;48.120;11.576;2022-12-15T15:15:14;1.40;40.10
490;DHT22;231;48.120;11.576;2022-12-15T15:17:44;1.50;40.50
490;DHT22;231;48.120;11.576;2022-12-15T15:20:18;1.00;40.50
490;DHT22;231;48.120;11.576;2022-12-15T15:23:01;1.30;40.70
490;DHT22;231;48.120;11.576;2022-12-15T15:25:35;1.40;40.70
490;DHT22;231;48.120;11.576;2022-12-15T15:28:21;1.30;41.60
490;DHT22;231;48.120;11.576;2022-12-15T15:30:50;1.40;42.10
490;DHT22;231;48.120;11.576;2022-12-15T15:33:18;1.50;42.00
490;DHT22;231;48.120;11.576;2022-12-15T15:35:48;1.50;41.10
490;DHT22;231;48.120;11.576;2022-12-15T15:38:19;1.20;41.00
490;DHT22;231;48.120;11.576;2022-12-15T15:40:50;1.00;40.50
490;DHT22;231;48.120;11.576;2022-12-15T15:43:18;1.40;41.20
490;DHT22;231;48.120;11.576;2022-12-15T15:45:45;1.40;41.70
490;DHT22;231;48.120;11.576;2022-12-15T15:48:17;1.40;41.20
490;DHT22;231;48.120;11.576;2022-12-15T15:50:46;1.00;41.40
490;DHT22;231;48.120;11.576;2022-12-15T15:53:17;1.40;41.90
490;DHT22;231;48.120;11.576;2022-12-15T15:55:45;1.40;41.40
490;DHT22;231;48.120;11.576;2022-12-15T15:58:15;1.50;42.10
490;DHT22;231;48.120;11.576;2022-12-15T16:00:42;1.10;41.10
490;DHT22;231;48.120;11.576;2022-12-15T16:03:09;1.50;41.60
490;DHT22;231;48.120;11.576;2022-12-15T16:05:36;1.50;41.60
490;DHT22;231;48.120;11.576;2022-12-15T16:08:04;1.50;41.60
490;DHT22;231;48.120;11.576;2022-12-15T16:10:33;1.50;41.40
490;DHT22;231;48.120;11.576;2022-12-15T16:13:00;0.90;40.80
490;DHT22;231;48.120;11.576;2022-12-15T16:15:30;1.00;41.30
490;DHT22;231;48.120;11.576;2022-12-15T16:17:57;1.40;41.60
490;DHT22;231;48.120;11.576;2022-12-15T16:20:26;1.40;41.50
490;DHT22;231;48.120;11.576;2022-12-15T16:22:59;1.30;41.30
490;DHT22;231;48.120;11.576;2022-12-15T16:25:29;1.40;42.50
490;DHT22;231;48.120;11.576;2022-12-15T16:27:57;1.40;42.40
490;DHT22;231;48.120;11.576;2022-12-15T16:30:26;1.00;42.10
490;DHT22;231;48.120;11.576;2022-12-15T16:32:54;1.30;43.00
490;DHT22;231;48.120;11.576;2022-12-15T16:35:23;1.20;43.30
490;DHT22;231;48.120;11.576;2022-12-15T16:37:51;1.30;44.10
490;DHT22;231;48.120;11.576;2022-12-15T16:40:20;0.90;43.90
490;DHT22;231;48.120;11.576;2022-12-15T16:42:54;1.10;44.10
490;DHT22;231;48.120;11.576;2022-12-15T16:45:23;0.80;43.80
490;DHT22;231;48.120;11.576;2022-12-15T16:47:50;1.50;44.40
490;DHT22;231;48.120;11.576;2022-12-15T16:50:20;1.00;44.00
490;DHT22;231;48.120;11.576;2022-12-15T16:52:51;1.50;44.10
490;DHT22;231;48.120;11.576;2022-12-15T16:55:22;1.40;43.60
490;DHT22;231;48.120;11.576;2022-12-15T16:57:51;1.30;44.20
490;DHT22;231;48.120;11.576;2022-12-15T17:00:20;1.50;44.40
490;DHT22;231;48.120;11.576;2022-12-15T17:02:49;1.40;43.40
490;DHT22;231;48.120;11.576;2022-12-15T17:05:20;1.10;43.20
490;DHT22;231;48.120;11.576;2022-12-15T17:07:50;0.90;43.20
490;DHT22;231;48.120;11.576;2022-12-15T17:10:21;1.20;43.70
490;DHT22;231;48.120;11.576;2022-12-15T17:12:49;1.30;44.20
490;DHT22;231;48.120;11.576;2022-12-15T17:15:19;1.30;44.20
490;DHT22;231;48.120;11.576;2022-12-15T17:17:46;1.30;44.20
490;DHT22;231;48.120;11.576;2022-12-15T17:20:24;1.10;44.00
490;DHT22;231;48.120;11.576;2022-12-15T17:22:55;1.40;42.80
490;DHT22;231;48.120;11.576;2022-12-15T17:25:25;1.00;42.60
490;DHT22;231;48.120;11.576;2022-12-15T17:27:56;1.10;42.20
490;DHT22;231;48.120;11.576;2022-12-15T17:30:25;1.20;43.70
490;DHT22;231;48.120;11.576;2022-12-15T17:32:52;0.80;43.40
490;DHT22;231;48.120;11.576;2022-12-15T17:35:19;1.10;44.10
490;DHT22;231;48.120;11.576;2022-12-15T17:37:47;0.90;44.50
490;DHT22;231;48.120;11.576;2022-12-15T17:40:19;0.80;43.50
490;DHT22;231;48.120;11.576;2022-12-15T17:42:47;0.70;44.50
490;DHT22;231;48.120;11.576;2022-12-15T17:45:18;0.90;45.00
490;DHT22;231;48.120;11.576;2022-12-15T17:47:45;1.30;45.50
490;DHT22;231;48.120;11.576;2022-12-15T17:50:14;1.10;45.00
490;DHT22;231;48.120;11.576;2022-12-15T17:52:43;1.10;45.20
490;DHT22;231;48.120;11.576;2022-12-15T17:55:18;1.10;46.00
490;DHT22;231;48.120;11.576;2022-12-15T17:57:46;1.10;46.00
490;DHT22;231;48.120;11.576;2022-12-15T18:00:19;0.80;46.20